sensor_id;sensor_type;location;lat;lon;timestamp;pressure;altitude;pressure_sealevel;temperature;humidity
57779;BME280;43608;49.486;9.640;2023-05-24T00:00:04;99074.13;;;9.19;78.81
57779;BME280;43608;49.486;9.640;2023-05-24T00:00:45;99066.19;;;9.16;78.84
57779;BME280;43608;49.486;9.640;2023-05-24T00:01:15;99060.84;;;9.14;79.01
57779;BME280;43608;49.486;9.640;2023-05-24T00:01:54;99054.69;;;9.11;78.81
57779;BME280;43608;49.486;9.640;2023-05-24T00:02:25;99059.13;;;9.15;78.95
57779;BME280;43608;49.486;9.640;2023-05-24T00:02:56;99065.31;;;9.18;78.85
57779;BME280;43608;49.486;9.640;2023-05-24T00:03:26;99064.41;;;9.19;78.95
57779;BME280;43608;49.486;9.640;2023-05-24T00:03:59;99051.13;;;9.10;79.02
57779;BME280;43608;49.486;9.640;2023-05-24T00:04:30;99035.25;;;9.07;78.85
57779;BME280;43608;49.486;9.640;2023-05-24T00:05:00;99063.56;;;9.20;79.08
57779;BME280;43608;49.486;9.640;2023-05-24T00:05:32;99045.84;;;9.10;79.02
57779;BME280;43608;49.486;9.640;2023-05-24T00:06:02;99063.56;;;9.20;79.07
57779;BME280;43608;49.486;9.640;2023-05-24T00:06:36;99061.78;;;9.19;78.98
57779;BME280;43608;49.486;9.640;2023-05-24T00:07:06;99056.47;;;9.16;78.90
57779;BME280;43608;49.486;9.640;2023-05-24T00:07:37;99030.81;;;9.01;79.06
57779;BME280;43608;49.486;9.640;2023-05-24T00:08:07;99060.91;;;9.19;79.15
57779;BME280;43608;49.486;9.640;2023-05-24T00:08:37;99046.75;;;9.09;79.22
57779;BME280;43608;49.486;9.640;2023-05-24T00:09:08;99061.81;;;9.22;78.98
57779;BME280;43608;49.486;9.640;2023-05-24T00:09:38;99056.53;;;9.21;78.99
57779;BME280;43608;49.486;9.640;2023-05-24T00:10:09;99057.34;;;9.17;78.76
57779;BME280;43608;49.486;9.640;2023-05-24T00:10:40;99046.75;;;9.14;79.06
57779;BME280;43608;49.486;9.640;2023-05-24T00:11:11;99041.47;;;9.12;78.93
57779;BME280;43608;49.486;9.640;2023-05-24T00:11:41;99069.75;;;9.25;78.85
57779;BME280;43608;49.486;9.640;2023-05-24T00:12:11;99062.72;;;9.26;78.97
57779;BME280;43608;49.486;9.640;2023-05-24T00:12:42;99068.03;;;9.29;79.19
57779;BME280;43608;49.486;9.640;2023-05-24T00:13:12;99056.53;;;9.24;79.24
57779;BME280;43608;49.486;9.640;2023-05-24T00:13:44;99056.53;;;9.22;79.17
57779;BME280;43608;49.486;9.640;2023-05-24T00:14:15;99032.69;;;9.18;78.97
57779;BME280;43608;49.486;9.640;2023-05-24T00:14:45;99030.03;;;9.18;79.02
57779;BME280;43608;49.486;9.640;2023-05-24T00:15:15;99053.94;;;9.30;78.99
57779;BME280;43608;49.486;9.640;2023-05-24T00:15:46;99052.16;;;9.32;79.22
57779;BME280;43608;49.486;9.640;2023-05-24T00:16:16;99044.22;;;9.29;79.25
57779;BME280;43608;49.486;9.640;2023-05-24T00:16:47;99045.13;;;9.33;79.07
57779;BME280;43608;49.486;9.640;2023-05-24T00:17:17;99044.22;;;9.31;79.35
57779;BME280;43608;49.486;9.640;2023-05-24T00:17:47;99040.72;;;9.30;79.13
57779;BME280;43608;49.486;9.640;2023-05-24T00:18:18;99041.59;;;9.31;79.03
57779;BME280;43608;49.486;9.640;2023-05-24T00:18:48;99038.94;;;9.28;79.15
57779;BME280;43608;49.486;9.640;2023-05-24T00:19:19;99028.34;;;9.28;79.29
57779;BME280;43608;49.486;9.640;2023-05-24T00:19:51;99039.84;;;9.33;79.29
57779;BME280;43608;49.486;9.640;2023-05-24T00:20:21;99025.69;;;9.26;79.25
57779;BME280;43608;49.486;9.640;2023-05-24T00:20:52;99043.41;;;9.38;79.31
57779;BME280;43608;49.486;9.640;2023-05-24T00:21:26;99049.56;;;9.40;79.23
57779;BME280;43608;49.486;9.640;2023-05-24T00:21:56;99016.84;;;9.25;79.45
57779;BME280;43608;49.486;9.640;2023-05-24T00:22:27;99030.13;;;9.35;79.31
57779;BME280;43608;49.486;9.640;2023-05-24T00:22:57;99029.28;;;9.34;79.20
57779;BME280;43608;49.486;9.640;2023-05-24T00:23:28;99044.31;;;9.43;79.13
57779;BME280;43608;49.486;9.640;2023-05-24T00:23:58;99016.00;;;9.30;79.14
57779;BME280;43608;49.486;9.640;2023-05-24T00:24:29;99038.13;;;9.42;79.10
57779;BME280;43608;49.486;9.640;2023-05-24T00:24:59;99039.91;;;9.43;79.04
57779;BME280;43608;49.486;9.640;2023-05-24T00:25:29;99040.78;;;9.44;79.11
57779;BME280;43608;49.486;9.640;2023-05-24T00:26:00;99037.25;;;9.43;79.14
57779;BME280;43608;49.486;9.640;2023-05-24T00:26:30;99023.97;;;9.34;79.07
57779;BME280;43608;49.486;9.640;2023-05-24T00:27:01;99031.06;;;9.41;78.94
57779;BME280;43608;49.486;9.640;2023-05-24T00:27:31;99039.00;;;9.41;79.05
57779;BME280;43608;49.486;9.640;2023-05-24T00:28:02;99037.25;;;9.47;79.49
57779;BME280;43608;49.486;9.640;2023-05-24T00:28:32;99037.25;;;9.47;79.08
57779;BME280;43608;49.486;9.640;2023-05-24T00:29:02;99019.59;;;9.36;79.17
57779;BME280;43608;49.486;9.640;2023-05-24T00:29:33;99010.75;;;9.31;79.16
57779;BME280;43608;49.486;9.640;2023-05-24T00:30:04;99028.41;;;9.40;79.15
57779;BME280;43608;49.486;9.640;2023-05-24T00:30:35;99029.31;;;9.40;78.96
57779;BME280;43608;49.486;9.640;2023-05-24T00:31:05;99051.41;;;9.49;79.08
57779;BME280;43608;49.486;9.640;2023-05-24T00:31:37;99041.69;;;9.48;79.03
57779;BME280;43608;49.486;9.640;2023-05-24T00:32:08;99044.34;;;9.49;78.80
57779;BME280;43608;49.486;9.640;2023-05-24T00:32:38;99026.63;;;9.37;78.76
57779;BME280;43608;49.486;9.640;2023-05-24T00:33:08;99034.63;;;9.45;78.96
57779;BME280;43608;49.486;9.640;2023-05-24T00:33:39;99034.63;;;9.47;78.93
57779;BME280;43608;49.486;9.640;2023-05-24T00:34:09;99026.66;;;9.40;78.79
57779;BME280;43608;49.486;9.640;2023-05-24T00:34:40;99016.03;;;9.37;78.94
57779;BME280;43608;49.486;9.640;2023-05-24T00:35:10;99045.25;;;9.51;79.15
57779;BME280;43608;49.486;9.640;2023-05-24T00:35:40;99023.13;;;9.40;79.06
57779;BME280;43608;49.486;9.640;2023-05-24T00:36:11;99045.25;;;9.51;78.92
57779;BME280;43608;49.486;9.640;2023-05-24T00:36:41;99017.81;;;9.38;78.83
57779;BME280;43608;49.486;9.640;2023-05-24T00:37:12;99011.63;;;9.35;79.13
57779;BME280;43608;49.486;9.640;2023-05-24T00:37:42;99034.66;;;9.51;79.60
57779;BME280;43608;49.486;9.640;2023-05-24T00:38:14;99025.81;;;9.49;79.30
57779;BME280;43608;49.486;9.640;2023-05-24T00:38:44;99030.22;;;9.49;79.42
57779;BME280;43608;49.486;9.640;2023-05-24T00:39:15;99032.00;;;9.50;79.46
57779;BME280;43608;49.486;9.640;2023-05-24T00:39:45;99024.94;;;9.46;79.73
57779;BME280;43608;49.486;9.640;2023-05-24T00:40:16;99001.91;;;9.31;79.95
57779;BME280;43608;49.486;9.640;2023-05-24T00:40:46;99021.38;;;9.42;79.82
57779;BME280;43608;49.486;9.640;2023-05-24T00:41:18;99033.78;;;9.51;79.90
57779;BME280;43608;49.486;9.640;2023-05-24T00:41:48;99038.16;;;9.49;79.90
57779;BME280;43608;49.486;9.640;2023-05-24T00:42:18;99016.97;;;9.42;79.84
57779;BME280;43608;49.486;9.640;2023-05-24T00:42:49;99037.31;;;9.53;80.00
57779;BME280;43608;49.486;9.640;2023-05-24T00:43:19;99033.78;;;9.52;79.99
57779;BME280;43608;49.486;9.640;2023-05-24T00:43:50;99017.81;;;9.40;80.05
57779;BME280;43608;49.486;9.640;2023-05-24T00:44:20;99028.50;;;9.51;79.75
57779;BME280;43608;49.486;9.640;2023-05-24T00:44:50;99033.78;;;9.55;79.82
57779;BME280;43608;49.486;9.640;2023-05-24T00:45:21;99037.34;;;9.56;79.91
57779;BME280;43608;49.486;9.640;2023-05-24T00:47:02;99027.59;;;9.50;80.04
57779;BME280;43608;49.486;9.640;2023-05-24T00:47:32;99011.66;;;9.41;80.02
57779;BME280;43608;49.486;9.640;2023-05-24T00:48:03;99032.03;;;9.56;80.01
57779;BME280;43608;49.486;9.640;2023-05-24T00:48:34;99022.28;;;9.50;79.95
57779;BME280;43608;49.486;9.640;2023-05-24T00:49:04;99018.78;;;9.48;80.00
57779;BME280;43608;49.486;9.640;2023-05-24T00:49:35;99029.38;;;9.54;80.08
57779;BME280;43608;49.486;9.640;2023-05-24T00:50:07;99022.34;;;9.56;80.20
57779;BME280;43608;49.486;9.640;2023-05-24T00:50:38;99004.59;;;9.41;80.31
57779;BME280;43608;49.486;9.640;2023-05-24T00:51:09;99018.78;;;9.51;80.38
57779;BME280;43608;49.486;9.640;2023-05-24T00:51:39;99027.63;;;9.58;80.36
57779;BME280;43608;49.486;9.640;2023-05-24T00:52:10;99028.53;;;9.58;80.63
57779;BME280;43608;49.486;9.640;2023-05-24T00:52:41;99022.34;;;9.58;80.68
57779;BME280;43608;49.486;9.640;2023-05-24T00:53:11;99009.94;;;9.49;80.64
57779;BME280;43608;49.486;9.640;2023-05-24T00:53:44;99025.88;;;9.58;80.57
57779;BME280;43608;49.486;9.640;2023-05-24T00:54:15;99022.34;;;9.58;80.47
57779;BME280;43608;49.486;9.640;2023-05-24T00:54:45;99022.34;;;9.59;80.75
57779;BME280;43608;49.486;9.640;2023-05-24T00:55:15;98990.50;;;9.44;80.54
57779;BME280;43608;49.486;9.640;2023-05-24T00:55:46;99017.94;;;9.60;80.55
57779;BME280;43608;49.486;9.640;2023-05-24T00:56:17;99007.34;;;9.55;80.70
57779;BME280;43608;49.486;9.640;2023-05-24T00:56:47;99022.34;;;9.59;80.81
57779;BME280;43608;49.486;9.640;2023-05-24T00:57:19;99022.34;;;9.59;80.85
57779;BME280;43608;49.486;9.640;2023-05-24T00:57:51;98994.06;;;9.46;80.54
57779;BME280;43608;49.486;9.640;2023-05-24T00:58:22;99017.94;;;9.60;80.80
57779;BME280;43608;49.486;9.640;2023-05-24T00:58:56;98989.63;;;9.45;80.61
57779;BME280;43608;49.486;9.640;2023-05-24T00:59:26;99022.34;;;9.58;80.45
57779;BME280;43608;49.486;9.640;2023-05-24T00:59:57;99006.47;;;9.55;80.54
57779;BME280;43608;49.486;9.640;2023-05-24T01:00:28;98990.53;;;9.46;80.51
57779;BME280;43608;49.486;9.640;2023-05-24T01:01:00;99009.06;;;9.52;80.57
57779;BME280;43608;49.486;9.640;2023-05-24T01:01:31;99011.75;;;9.58;80.78
57779;BME280;43608;49.486;9.640;2023-05-24T01:02:01;99008.19;;;9.54;80.74
57779;BME280;43608;49.486;9.640;2023-05-24T01:02:31;99000.25;;;9.51;80.99
57779;BME280;43608;49.486;9.640;2023-05-24T01:03:02;99010.84;;;9.53;80.91
57779;BME280;43608;49.486;9.640;2023-05-24T01:03:33;99009.09;;;9.56;81.26
57779;BME280;43608;49.486;9.640;2023-05-24T01:04:04;99006.38;;;9.44;81.06
57779;BME280;43608;49.486;9.640;2023-05-24T01:04:34;98995.78;;;9.41;81.29
57779;BME280;43608;49.486;9.640;2023-05-24T01:05:07;99009.94;;;9.49;81.27
57779;BME280;43608;49.486;9.640;2023-05-24T01:05:37;99000.22;;;9.42;81.26
57779;BME280;43608;49.486;9.640;2023-05-24T01:06:08;99012.63;;;9.52;81.40
57779;BME280;43608;49.486;9.640;2023-05-24T01:08:07;98994.88;;;9.36;81.35
57779;BME280;43608;49.486;9.640;2023-05-24T01:13:43;98991.31;;;9.29;81.45
57779;BME280;43608;49.486;9.640;2023-05-24T01:15:23;99015.19;;;9.41;81.47
57779;BME280;43608;49.486;9.640;2023-05-24T01:16:00;99020.47;;;9.38;81.42
57779;BME280;43608;49.486;9.640;2023-05-24T01:16:51;99020.47;;;9.37;81.66
57779;BME280;43608;49.486;9.640;2023-05-24T01:17:30;99023.97;;;9.36;81.64
57779;BME280;43608;49.486;9.640;2023-05-24T01:18:23;99014.28;;;9.35;81.61
57779;BME280;43608;49.486;9.640;2023-05-24T01:19:03;99017.81;;;9.34;81.86
57779;BME280;43608;49.486;9.640;2023-05-24T01:19:55;99023.09;;;9.34;81.75
57779;BME280;43608;49.486;9.640;2023-05-24T01:20:31;99016.91;;;9.30;81.90
57779;BME280;43608;49.486;9.640;2023-05-24T01:24:13;99028.34;;;9.31;82.17
57779;BME280;43608;49.486;9.640;2023-05-24T01:24:55;99023.94;;;9.30;82.20
57779;BME280;43608;49.486;9.640;2023-05-24T01:26:36;99028.34;;;9.29;82.31
57779;BME280;43608;49.486;9.640;2023-05-24T01:27:10;99030.13;;;9.29;82.65
57779;BME280;43608;49.486;9.640;2023-05-24T01:27:41;99025.72;;;9.29;82.37
57779;BME280;43608;49.486;9.640;2023-05-24T01:28:13;99024.84;;;9.29;82.40
57779;BME280;43608;49.486;9.640;2023-05-24T01:28:46;99016.84;;;9.21;82.40
57779;BME280;43608;49.486;9.640;2023-05-24T01:29:17;99019.50;;;9.24;82.74
57779;BME280;43608;49.486;9.640;2023-05-24T01:29:49;99026.56;;;9.26;82.47
57779;BME280;43608;49.486;9.640;2023-05-24T01:30:24;99009.78;;;9.23;82.78
57779;BME280;43608;49.486;9.640;2023-05-24T01:30:55;99008.00;;;9.17;82.89
57779;BME280;43608;49.486;9.640;2023-05-24T01:31:25;99026.56;;;9.25;82.48
57779;BME280;43608;49.486;9.640;2023-05-24T01:31:56;99017.72;;;9.23;82.84
57779;BME280;43608;49.486;9.640;2023-05-24T01:32:27;99007.13;;;9.18;82.63
57779;BME280;43608;49.486;9.640;2023-05-24T01:32:58;99028.34;;;9.29;82.60
57779;BME280;43608;49.486;9.640;2023-05-24T01:33:29;99028.34;;;9.28;82.61
57779;BME280;43608;49.486;9.640;2023-05-24T01:34:00;99023.94;;;9.26;82.71
57779;BME280;43608;49.486;9.640;2023-05-24T01:34:30;99025.72;;;9.29;82.84
57779;BME280;43608;49.486;9.640;2023-05-24T01:35:00;99020.41;;;9.29;82.76
57779;BME280;43608;49.486;9.640;2023-05-24T01:35:31;99002.72;;;9.17;82.62
57779;BME280;43608;49.486;9.640;2023-05-24T01:36:03;99027.50;;;9.32;82.81
57779;BME280;43608;49.486;9.640;2023-05-24T01:36:33;99024.84;;;9.29;82.89
57779;BME280;43608;49.486;9.640;2023-05-24T01:37:04;99032.78;;;9.33;82.63
57779;BME280;43608;49.486;9.640;2023-05-24T01:37:35;99014.22;;;9.25;82.96
57779;BME280;43608;49.486;9.640;2023-05-24T01:38:06;99022.19;;;9.30;82.81
57779;BME280;43608;49.486;9.640;2023-05-24T01:38:39;98933.75;;;8.83;82.81
57779;BME280;43608;49.486;9.640;2023-05-24T01:39:10;99018.66;;;9.30;82.90
57779;BME280;43608;49.486;9.640;2023-05-24T01:39:41;98997.44;;;9.22;82.89
57779;BME280;43608;49.486;9.640;2023-05-24T01:40:12;99025.72;;;9.32;82.75
57779;BME280;43608;49.486;9.640;2023-05-24T01:40:43;99017.78;;;9.29;82.78
57779;BME280;43608;49.486;9.640;2023-05-24T01:41:25;99023.97;;;9.36;82.76
57779;BME280;43608;49.486;9.640;2023-05-24T01:42:13;99028.41;;;9.37;82.64
57779;BME280;43608;49.486;9.640;2023-05-24T01:43:39;99022.19;;;9.33;82.43
57779;BME280;43608;49.486;9.640;2023-05-24T01:44:21;98995.69;;;9.25;82.45
57779;BME280;43608;49.486;9.640;2023-05-24T01:45:49;99017.81;;;9.35;82.16
57779;BME280;43608;49.486;9.640;2023-05-24T01:46:32;99023.13;;;9.40;82.03
57779;BME280;43608;49.486;9.640;2023-05-24T01:49:25;99028.47;;;9.49;81.74
57779;BME280;43608;49.486;9.640;2023-05-24T01:50:01;99022.28;;;9.49;81.82
57779;BME280;43608;49.486;9.640;2023-05-24T01:50:44;99026.72;;;9.53;81.86
57779;BME280;43608;49.486;9.640;2023-05-24T01:51:18;99004.59;;;9.40;81.66
57779;BME280;43608;49.486;9.640;2023-05-24T01:51:54;99024.06;;;9.53;81.69
57779;BME280;43608;49.486;9.640;2023-05-24T01:52:30;99028.50;;;9.55;81.61
57779;BME280;43608;49.486;9.640;2023-05-24T01:53:06;99009.06;;;9.47;81.89
57779;BME280;43608;49.486;9.640;2023-05-24T01:53:44;99032.06;;;9.57;81.49
57779;BME280;43608;49.486;9.640;2023-05-24T01:54:19;99031.19;;;9.58;81.64
57779;BME280;43608;49.486;9.640;2023-05-24T01:54:51;99002.00;;;9.45;81.47
57779;BME280;43608;49.486;9.640;2023-05-24T01:55:23;99024.97;;;9.56;81.44
57779;BME280;43608;49.486;9.640;2023-05-24T01:55:57;99026.75;;;9.56;81.49
57779;BME280;43608;49.486;9.640;2023-05-24T01:56:30;99012.56;;;9.48;81.53
57779;BME280;43608;49.486;9.640;2023-05-24T01:57:04;99002.84;;;9.40;81.54
57779;BME280;43608;49.486;9.640;2023-05-24T01:57:37;98974.53;;;9.25;81.61
57779;BME280;43608;49.486;9.640;2023-05-24T01:58:12;99004.59;;;9.40;81.73
57779;BME280;43608;49.486;9.640;2023-05-24T01:58:43;99022.28;;;9.50;81.81
57779;BME280;43608;49.486;9.640;2023-05-24T01:59:15;99013.44;;;9.47;81.79
57779;BME280;43608;49.486;9.640;2023-05-24T01:59:46;99027.59;;;9.49;82.04
57779;BME280;43608;49.486;9.640;2023-05-24T02:00:18;98996.63;;;9.32;81.76
57779;BME280;43608;49.486;9.640;2023-05-24T02:00:49;99007.25;;;9.40;81.65
57779;BME280;43608;49.486;9.640;2023-05-24T02:01:20;99028.50;;;9.51;81.91
57779;BME280;43608;49.486;9.640;2023-05-24T02:01:50;99022.28;;;9.47;81.86
57779;BME280;43608;49.486;9.640;2023-05-24T02:02:21;99020.53;;;9.48;81.85
57779;BME280;43608;49.486;9.640;2023-05-24T02:02:51;98996.63;;;9.31;81.68
57779;BME280;43608;49.486;9.640;2023-05-24T02:03:22;99019.66;;;9.47;81.63
57779;BME280;43608;49.486;9.640;2023-05-24T02:03:53;99010.78;;;9.40;81.50
57779;BME280;43608;49.486;9.640;2023-05-24T02:04:25;99023.16;;;9.43;81.68
57779;BME280;43608;49.486;9.640;2023-05-24T02:04:55;99024.94;;;9.46;81.62
57779;BME280;43608;49.486;9.640;2023-05-24T02:05:26;99018.72;;;9.40;81.54
57779;BME280;43608;49.486;9.640;2023-05-24T02:05:56;99019.59;;;9.38;81.42
57779;BME280;43608;49.486;9.640;2023-05-24T02:06:27;99001.91;;;9.31;81.61
57779;BME280;43608;49.486;9.640;2023-05-24T02:06:57;99015.19;;;9.38;81.53
57779;BME280;43608;49.486;9.640;2023-05-24T02:07:27;99027.53;;;9.44;81.31
57779;BME280;43608;49.486;9.640;2023-05-24T02:07:58;99021.38;;;9.40;81.14
57779;BME280;43608;49.486;9.640;2023-05-24T02:08:28;99025.81;;;9.43;80.93
57779;BME280;43608;49.486;9.640;2023-05-24T02:08:58;99008.97;;;9.35;81.01
57779;BME280;43608;49.486;9.640;2023-05-24T02:09:29;99029.31;;;9.43;80.65
57779;BME280;43608;49.486;9.640;2023-05-24T02:09:59;99023.13;;;9.40;80.54
57779;BME280;43608;49.486;9.640;2023-05-24T02:10:30;99017.81;;;9.35;80.44
57779;BME280;43608;49.486;9.640;2023-05-24T02:11:00;99026.66;;;9.40;80.36
57779;BME280;43608;49.486;9.640;2023-05-24T02:11:31;99028.41;;;9.38;80.35
57779;BME280;43608;49.486;9.640;2023-05-24T02:12:02;99029.31;;;9.42;80.41
57779;BME280;43608;49.486;9.640;2023-05-24T02:12:32;99017.81;;;9.37;80.25
57779;BME280;43608;49.486;9.640;2023-05-24T02:13:03;99023.97;;;9.36;80.19
57779;BME280;43608;49.486;9.640;2023-05-24T02:13:33;99015.16;;;9.35;80.36
57779;BME280;43608;49.486;9.640;2023-05-24T02:14:03;99018.66;;;9.28;80.44
57779;BME280;43608;49.486;9.640;2023-05-24T02:14:34;99030.19;;;9.41;80.48
57779;BME280;43608;49.486;9.640;2023-05-24T02:15:07;99011.56;;;9.27;80.54
57779;BME280;43608;49.486;9.640;2023-05-24T02:15:38;99018.69;;;9.34;80.41
57779;BME280;43608;49.486;9.640;2023-05-24T02:16:10;99028.41;;;9.38;80.31
57779;BME280;43608;49.486;9.640;2023-05-24T02:16:41;99038.13;;;9.42;80.15
57779;BME280;43608;49.486;9.640;2023-05-24T02:17:16;99026.66;;;9.42;80.39
57779;BME280;43608;49.486;9.640;2023-05-24T02:17:47;99031.03;;;9.37;80.08
57779;BME280;43608;49.486;9.640;2023-05-24T02:18:17;98978.88;;;9.08;80.14
57779;BME280;43608;49.486;9.640;2023-05-24T02:18:48;99014.25;;;9.32;79.94
57779;BME280;43608;49.486;9.640;2023-05-24T02:19:19;99031.97;;;9.40;79.87
57779;BME280;43608;49.486;9.640;2023-05-24T02:19:50;99030.19;;;9.38;79.90
57779;BME280;43608;49.486;9.640;2023-05-24T02:20:20;99033.69;;;9.41;79.84
57779;BME280;43608;49.486;9.640;2023-05-24T02:20:51;99026.63;;;9.34;79.68
57779;BME280;43608;49.486;9.640;2023-05-24T02:21:22;99033.69;;;9.41;79.83
57779;BME280;43608;49.486;9.640;2023-05-24T02:21:56;99005.41;;;9.25;79.76
57779;BME280;43608;49.486;9.640;2023-05-24T02:22:26;99023.09;;;9.35;79.45
57779;BME280;43608;49.486;9.640;2023-05-24T02:22:57;99027.53;;;9.38;79.42
57779;BME280;43608;49.486;9.640;2023-05-24T02:23:29;99033.69;;;9.40;79.33
57779;BME280;43608;49.486;9.640;2023-05-24T02:23:59;99026.63;;;9.37;79.51
57779;BME280;43608;49.486;9.640;2023-05-24T02:24:29;99025.75;;;9.35;79.29
57779;BME280;43608;49.486;9.640;2023-05-24T02:25:00;99035.47;;;9.41;79.27
57779;BME280;43608;49.486;9.640;2023-05-24T02:25:31;99016.91;;;9.33;79.20
57779;BME280;43608;49.486;9.640;2023-05-24T02:26:02;99026.63;;;9.36;79.08
57779;BME280;43608;49.486;9.640;2023-05-24T02:26:32;99029.28;;;9.36;79.14
57779;BME280;43608;49.486;9.640;2023-05-24T02:27:03;99020.41;;;9.31;79.25
57779;BME280;43608;49.486;9.640;2023-05-24T02:27:33;99013.34;;;9.30;79.18
57779;BME280;43608;49.486;9.640;2023-05-24T02:28:04;99026.63;;;9.34;79.12
57779;BME280;43608;49.486;9.640;2023-05-24T02:28:34;99032.81;;;9.38;78.85
57779;BME280;43608;49.486;9.640;2023-05-24T02:29:05;99022.19;;;9.33;78.91
57779;BME280;43608;49.486;9.640;2023-05-24T02:29:36;99016.00;;;9.30;78.94
57779;BME280;43608;49.486;9.640;2023-05-24T02:30:07;99029.28;;;9.39;78.82
57779;BME280;43608;49.486;9.640;2023-05-24T02:30:38;99030.19;;;9.39;78.81
57779;BME280;43608;49.486;9.640;2023-05-24T02:31:08;99023.97;;;9.37;78.54
57779;BME280;43608;49.486;9.640;2023-05-24T02:31:39;99007.19;;;9.28;78.96
57779;BME280;43608;49.486;9.640;2023-05-24T02:32:09;99014.22;;;9.27;78.47
57779;BME280;43608;49.486;9.640;2023-05-24T02:32:40;99031.91;;;9.37;78.37
57779;BME280;43608;49.486;9.640;2023-05-24T02:33:10;99014.22;;;9.25;78.41
57779;BME280;43608;49.486;9.640;2023-05-24T02:33:41;99032.81;;;9.36;78.04
57779;BME280;43608;49.486;9.640;2023-05-24T02:34:11;99027.53;;;9.36;78.04
57779;BME280;43608;49.486;9.640;2023-05-24T02:34:42;99011.56;;;9.24;78.24
57779;BME280;43608;49.486;9.640;2023-05-24T02:35:13;99018.66;;;9.28;78.04
57779;BME280;43608;49.486;9.640;2023-05-24T02:35:43;99032.78;;;9.35;78.11
57779;BME280;43608;49.486;9.640;2023-05-24T02:36:13;99031.00;;;9.31;78.06
57779;BME280;43608;49.486;9.640;2023-05-24T02:36:44;99034.56;;;9.34;78.42
57779;BME280;43608;49.486;9.640;2023-05-24T02:37:14;99006.22;;;9.19;78.15
57779;BME280;43608;49.486;9.640;2023-05-24T02:37:46;99032.78;;;9.35;78.15
57779;BME280;43608;49.486;9.640;2023-05-24T02:38:16;99038.06;;;9.35;77.92
57779;BME280;43608;49.486;9.640;2023-05-24T02:38:47;99031.91;;;9.34;78.00
57779;BME280;43608;49.486;9.640;2023-05-24T02:39:17;99033.69;;;9.34;78.10
57779;BME280;43608;49.486;9.640;2023-05-24T02:39:47;99020.41;;;9.26;77.94
57779;BME280;43608;49.486;9.640;2023-05-24T02:40:18;99028.34;;;9.32;78.03
57779;BME280;43608;49.486;9.640;2023-05-24T02:40:48;99011.56;;;9.21;78.09
57779;BME280;43608;49.486;9.640;2023-05-24T02:41:19;99007.13;;;9.20;77.89
57779;BME280;43608;49.486;9.640;2023-05-24T02:41:49;99023.94;;;9.30;78.14
57779;BME280;43608;49.486;9.640;2023-05-24T02:42:20;99030.13;;;9.30;78.05
57779;BME280;43608;49.486;9.640;2023-05-24T02:42:50;99023.06;;;9.28;77.76
57779;BME280;43608;49.486;9.640;2023-05-24T02:43:20;99022.19;;;9.29;77.82
57779;BME280;43608;49.486;9.640;2023-05-24T02:43:51;99004.47;;;9.17;77.82
57779;BME280;43608;49.486;9.640;2023-05-24T02:44:21;99001.81;;;9.14;77.92
57779;BME280;43608;49.486;9.640;2023-05-24T02:44:51;99019.50;;;9.25;77.97
57779;BME280;43608;49.486;9.640;2023-05-24T02:45:22;99023.97;;;9.31;77.91
57779;BME280;43608;49.486;9.640;2023-05-24T02:45:52;99022.19;;;9.29;77.86
57779;BME280;43608;49.486;9.640;2023-05-24T02:46:23;99004.47;;;9.17;78.05
57779;BME280;43608;49.486;9.640;2023-05-24T02:46:53;99009.78;;;9.21;77.97
57779;BME280;43608;49.486;9.640;2023-05-24T02:47:23;99013.34;;;9.25;78.02
57779;BME280;43608;49.486;9.640;2023-05-24T02:47:55;99027.47;;;9.29;78.04
57779;BME280;43608;49.486;9.640;2023-05-24T02:48:26;99014.22;;;9.22;77.97
57779;BME280;43608;49.486;9.640;2023-05-24T02:48:56;99020.41;;;9.29;78.07
57779;BME280;43608;49.486;9.640;2023-05-24T02:49:26;99020.41;;;9.28;77.98
57779;BME280;43608;49.486;9.640;2023-05-24T02:49:57;98996.50;;;9.12;77.97
57779;BME280;43608;49.486;9.640;2023-05-24T02:50:27;99027.44;;;9.27;77.94
57779;BME280;43608;49.486;9.640;2023-05-24T02:50:57;99010.66;;;9.22;77.99
57779;BME280;43608;49.486;9.640;2023-05-24T02:51:32;99008.00;;;9.17;77.91
57779;BME280;43608;49.486;9.640;2023-05-24T02:52:02;99000.03;;;9.14;77.99
57779;BME280;43608;49.486;9.640;2023-05-24T02:52:33;99019.50;;;9.22;77.94
57779;BME280;43608;49.486;9.640;2023-05-24T02:53:03;99017.72;;;9.23;78.09
57779;BME280;43608;49.486;9.640;2023-05-24T02:53:33;99015.94;;;9.22;77.79
57779;BME280;43608;49.486;9.640;2023-05-24T02:54:04;99027.44;;;9.27;77.99
57779;BME280;43608;49.486;9.640;2023-05-24T02:54:34;99023.94;;;9.26;77.97
57779;BME280;43608;49.486;9.640;2023-05-24T02:55:06;99027.44;;;9.27;78.16
57779;BME280;43608;49.486;9.640;2023-05-24T02:55:36;99024.81;;;9.27;78.26
57779;BME280;43608;49.486;9.640;2023-05-24T02:56:07;98995.59;;;9.08;78.22
57779;BME280;43608;49.486;9.640;2023-05-24T02:56:37;99029.22;;;9.26;78.15
57779;BME280;43608;49.486;9.640;2023-05-24T02:57:08;99023.06;;;9.26;78.10
57779;BME280;43608;49.486;9.640;2023-05-24T02:57:39;99025.66;;;9.23;78.19
57779;BME280;43608;49.486;9.640;2023-05-24T02:58:10;99005.31;;;9.11;77.98
57779;BME280;43608;49.486;9.640;2023-05-24T02:58:41;99027.44;;;9.25;78.17
57779;BME280;43608;49.486;9.640;2023-05-24T02:59:11;99021.22;;;9.20;78.19
57779;BME280;43608;49.486;9.640;2023-05-24T02:59:42;99031.00;;;9.26;78.09
57779;BME280;43608;49.486;9.640;2023-05-24T03:00:13;99022.16;;;9.25;78.30
57779;BME280;43608;49.486;9.640;2023-05-24T03:00:44;99021.22;;;9.20;78.11
57779;BME280;43608;49.486;9.640;2023-05-24T03:01:14;99021.22;;;9.20;78.01
57779;BME280;43608;49.486;9.640;2023-05-24T03:01:45;99031.84;;;9.25;77.93
57779;BME280;43608;49.486;9.640;2023-05-24T03:02:15;99002.66;;;9.11;78.14
57779;BME280;43608;49.486;9.640;2023-05-24T03:02:47;99026.56;;;9.23;78.03
57779;BME280;43608;49.486;9.640;2023-05-24T03:03:20;99004.44;;;9.14;78.01
57779;BME280;43608;49.486;9.640;2023-05-24T03:03:50;99021.22;;;9.17;78.28
57779;BME280;43608;49.486;9.640;2023-05-24T03:04:20;99028.31;;;9.23;78.03
57779;BME280;43608;49.486;9.640;2023-05-24T03:04:51;99021.22;;;9.19;78.17
57779;BME280;43608;49.486;9.640;2023-05-24T03:05:21;99027.38;;;9.19;78.05
57779;BME280;43608;49.486;9.640;2023-05-24T03:05:51;99028.28;;;9.18;78.12
57779;BME280;43608;49.486;9.640;2023-05-24T03:06:22;99032.72;;;9.22;77.86